Time;durP1;ratioP1;P1;durP2;ratioP2;P2;SDS_P1;SDS_P2;PMS_P1;PMS_P2;Temp;Humidity;BMP_temperature;BMP_pressure;BME280_temperature;BME280_humidity;BME280_pressure;Samples;Min_cycle;Max_cycle;Signal;HPM_P1;HPM_P2
2022/10/06 00:02:20;;;;;;;;;10.75;9.00;;;;;21.42;59.96;101856.66;5080187;28;45233;-36
2022/10/06 00:04:46;;;;;;;;;7.50;7.50;;;;;21.39;60.20;101856.72;5078899;28;45222;-36
2022/10/06 00:07:11;;;;;;;;;12.25;10.50;;;;;21.38;59.82;101862.94;5078343;28;45342;-36
2022/10/06 00:09:36;;;;;;;;;10.00;8.25;;;;;21.39;59.88;101870.00;5070776;28;45307;-36
2022/10/06 00:12:02;;;;;;;;;10.00;7.75;;;;;21.40;60.00;101870.88;5059766;28;45209;-36
2022/10/06 00:14:27;;;;;;;;;11.75;11.00;;;;;21.41;60.04;101884.13;5059066;28;57151;-36
2022/10/06 00:16:53;;;;;;;;;10.50;9.50;;;;;21.41;60.01;101881.47;5058659;28;68249;-36
2022/10/06 00:19:18;;;;;;;;;11.50;9.25;;;;;21.44;59.80;101888.50;5058923;28;66534;-36
2022/10/06 00:21:43;;;;;;;;;10.00;9.50;;;;;21.42;59.86;101885.00;5064131;28;57748;-36
2022/10/06 00:24:09;;;;;;;;;9.75;8.75;;;;;21.39;59.90;101888.59;5079907;28;45249;-37
2022/10/06 00:26:34;;;;;;;;;8.75;8.75;;;;;21.42;60.06;101901.81;5077519;28;73035;-36
2022/10/06 00:29:00;;;;;;;;;10.75;8.75;;;;;21.42;59.93;101900.94;5078304;28;45504;-35
2022/10/06 00:31:25;;;;;;;;;10.00;10.00;;;;;21.43;59.72;101919.50;5080943;28;45815;-35
2022/10/06 00:33:51;;;;;;;;;9.75;7.75;;;;;21.42;59.59;101914.22;5083251;28;45392;-35
2022/10/06 00:36:16;;;;;;;;;14.00;9.00;;;;;21.41;59.70;101921.31;5080958;28;67942;-35
2022/10/06 00:38:41;;;;;;;;;12.25;8.75;;;;;21.41;60.11;101923.09;5083150;28;45351;-35
2022/10/06 00:41:10;;;;;;;;;7.50;7.25;;;;;21.40;59.98;101934.63;5064411;28;60165;-35
2022/10/06 00:43:40;;;;;;;;;9.00;8.00;;;;;21.39;59.82;101925.78;5081808;28;45209;-35
2022/10/06 00:46:11;;;;;;;;;13.50;9.75;;;;;21.39;59.53;101931.09;5082724;28;45960;-35
2022/10/06 00:48:36;;;;;;;;;10.00;9.00;;;;;21.39;59.61;101927.56;5083114;28;45245;-35
2022/10/06 00:51:01;;;;;;;;;8.75;8.00;;;;;21.40;59.37;101946.13;5064896;28;45335;-35
2022/10/06 00:53:27;;;;;;;;;11.50;9.00;;;;;21.41;60.06;101934.59;5050622;28;57524;-36
2022/10/06 00:55:53;;;;;;;;;9.25;8.25;;;;;21.40;59.93;101935.50;5064687;28;49617;-36
2022/10/06 00:58:19;;;;;;;;;10.50;10.50;;;;;21.41;59.41;101929.28;5068634;27;45351;-36
2022/10/06 01:00:44;;;;;;;;;10.50;8.00;;;;;21.39;60.08;101927.56;5068952;28;45314;-36
2022/10/06 01:03:13;;;;;;;;;12.75;10.25;;;;;21.40;59.58;101927.53;5067367;28;45478;-36
2022/10/06 01:05:48;;;;;;;;;8.25;8.25;;;;;21.41;59.95;101934.59;5051752;28;46940;-36
2022/10/06 01:08:13;;;;;;;;;11.75;9.50;;;;;21.43;59.31;101934.56;5062684;28;45191;-35
2022/10/06 01:10:39;;;;;;;;;10.25;8.00;;;;;21.42;59.57;101944.31;5066557;28;45231;-36
2022/10/06 01:13:05;;;;;;;;;10.00;8.25;;;;;21.42;59.36;101943.44;5061481;28;55407;-36
2022/10/06 01:15:32;;;;;;;;;12.25;10.00;;;;;21.39;59.48;101952.34;5062113;28;46345;-36
2022/10/06 01:18:01;;;;;;;;;11.75;9.75;;;;;21.40;59.73;101951.44;5061904;28;45323;-36
2022/10/06 01:20:27;;;;;;;;;13.00;10.50;;;;;21.40;59.94;101951.44;5033669;28;45336;-36
2022/10/06 01:23:00;;;;;;;;;11.50;8.75;;;;;21.38;59.74;101953.25;5061999;28;45485;-36
2022/10/06 01:25:25;;;;;;;;;10.25;9.50;;;;;21.37;59.74;101962.13;5034609;28;45526;-35
2022/10/06 01:27:52;;;;;;;;;8.25;8.25;;;;;21.38;59.79;101958.56;5060440;28;45361;-35
2022/10/06 01:30:27;;;;;;;;;11.75;8.00;;;;;21.37;59.45;101974.50;5071801;28;45445;-36
2022/10/06 01:32:52;;;;;;;;;12.00;10.00;;;;;21.36;59.49;101963.00;5064659;28;45385;-37
2022/10/06 01:35:17;;;;;;;;;13.00;8.75;;;;;21.37;59.94;101964.78;5069006;28;46093;-40
2022/10/06 01:37:43;;;;;;;;;9.50;9.50;;;;;21.36;59.97;101976.28;5061629;28;46709;-37
2022/10/06 01:40:08;;;;;;;;;11.75;9.00;;;;;21.37;59.98;101971.84;5061410;28;57892;-37
2022/10/06 01:42:34;;;;;;;;;7.50;7.50;;;;;21.36;59.55;101976.28;5061008;28;45231;-36
2022/10/06 01:45:00;;;;;;;;;7.00;7.00;;;;;21.36;59.94;101973.63;5061717;28;46207;-36
2022/10/06 01:47:25;;;;;;;;;7.25;7.25;;;;;21.38;59.96;101974.50;5061543;28;45181;-36
2022/10/06 01:49:51;;;;;;;;;9.75;8.50;;;;;21.38;59.98;101974.50;5060588;28;45717;-36
2022/10/06 01:52:16;;;;;;;;;9.75;8.75;;;;;21.38;60.13;101971.84;5060863;28;61395;-36
2022/10/06 01:54:41;;;;;;;;;11.25;8.00;;;;;21.37;59.95;101980.72;5071468;28;69417;-36
2022/10/06 01:57:10;;;;;;;;;9.50;7.25;;;;;21.36;59.79;101976.28;5081317;28;51722;-36
2022/10/06 01:59:35;;;;;;;;;7.75;6.50;;;;;21.35;59.74;101973.66;5082111;28;45447;-36
2022/10/06 02:02:00;;;;;;;;;9.00;7.25;;;;;21.34;59.95;101978.09;5080098;28;51544;-36
2022/10/06 02:04:26;;;;;;;;;11.25;7.75;;;;;21.34;59.91;101983.41;5081917;28;45368;-36
2022/10/06 02:06:54;;;;;;;;;11.25;7.00;;;;;21.34;59.86;101983.41;5081672;28;45306;-36
2022/10/06 02:09:19;;;;;;;;;11.75;9.00;;;;;21.34;59.78;101988.72;5081844;28;45349;-36
2022/10/06 02:11:45;;;;;;;;;9.00;7.75;;;;;21.35;59.68;101986.94;5063329;27;45476;-36
2022/10/06 02:14:11;;;;;;;;;6.50;6.50;;;;;21.35;59.61;101990.47;5060327;28;66269;-36
2022/10/06 02:16:37;;;;;;;;;8.25;8.25;;;;;21.35;59.79;101984.28;5061256;28;45241;-36
2022/10/06 02:19:02;;;;;;;;;14.25;9.50;;;;;21.34;59.19;101994.03;5061305;28;45237;-36
2022/10/06 02:21:28;;;;;;;;;9.00;7.50;;;;;21.34;59.40;101986.06;5061261;28;45369;-36
2022/10/06 02:23:53;;;;;;;;;6.75;6.25;;;;;21.33;59.28;101994.94;5060421;28;67542;-36
2022/10/06 02:26:19;;;;;;;;;7.00;7.00;;;;;21.34;59.54;102003.75;5061174;28;45374;-36
2022/10/06 02:28:45;;;;;;;;;6.50;6.50;;;;;21.33;59.39;102007.31;5060025;28;45436;-36
2022/10/06 02:31:11;;;;;;;;;8.00;8.00;;;;;21.33;59.51;102002.00;5060826;28;45269;-36
2022/10/06 02:33:37;;;;;;;;;8.25;8.00;;;;;21.33;59.81;102008.19;5061012;28;47209;-36
2022/10/06 02:36:03;;;;;;;;;9.00;9.00;;;;;21.33;59.72;102007.31;5077810;28;45345;-36
2022/10/06 02:38:28;;;;;;;;;8.00;7.00;;;;;21.32;59.96;102010.88;5069820;27;45271;-36
2022/10/06 02:40:54;;;;;;;;;8.75;7.00;;;;;21.33;59.48;102020.59;5061018;28;45350;-36
2022/10/06 02:43:20;;;;;;;;;9.00;7.00;;;;;21.33;59.65;102018.81;5060706;28;46391;-36
2022/10/06 02:45:55;;;;;;;;;9.25;7.50;;;;;21.34;59.75;102015.25;5060935;28;45204;-36
2022/10/06 02:48:23;;;;;;;;;7.50;6.75;;;;;21.36;59.47;102015.22;5061008;28;45330;-36
2022/10/06 02:50:58;;;;;;;;;7.50;6.00;;;;;21.35;59.42;102022.31;5060744;28;45350;-36
2022/10/06 02:53:26;;;;;;;;;7.00;6.25;;;;;21.34;59.30;102025.88;5059783;28;46332;-36
2022/10/06 02:55:59;;;;;;;;;7.00;5.75;;;;;21.35;59.41;102026.75;5060467;28;45311;-36
2022/10/06 02:58:25;;;;;;;;;9.75;6.75;;;;;21.34;59.21;102022.34;5060446;28;45336;-36
2022/10/06 03:00:50;;;;;;;;;7.00;5.50;;;;;21.34;59.35;102025.88;5060932;28;45273;-36
2022/10/06 03:03:15;;;;;;;;;6.50;6.00;;;;;21.34;59.55;102025.88;5059793;28;61083;-36
2022/10/06 03:05:41;;;;;;;;;5.75;5.50;;;;;21.35;59.32;102032.06;5060526;28;53099;-36
2022/10/06 03:08:09;;;;;;;;;5.25;5.25;;;;;21.35;58.96;102032.94;5060171;28;52150;-36
2022/10/06 03:10:34;;;;;;;;;8.75;8.50;;;;;21.33;59.42;102033.88;5064520;28;45206;-36
2022/10/06 03:13:00;;;;;;;;;6.00;6.00;;;;;21.33;59.24;102032.09;5059874;28;57284;-36
2022/10/06 03:15:25;;;;;;;;;4.75;4.75;;;;;21.32;59.35;102038.31;5060179;28;45204;-36
2022/10/06 03:17:51;;;;;;;;;5.75;5.50;;;;;21.33;59.06;102032.09;5060327;28;45606;-36
2022/10/06 03:20:16;;;;;;;;;8.00;6.00;;;;;21.33;58.87;102040.06;5046732;28;45353;-36
2022/10/06 03:22:42;;;;;;;;;11.25;8.00;;;;;21.33;59.05;102049.81;5059526;28;65325;-36
2022/10/06 03:25:08;;;;;;;;;8.00;7.75;;;;;21.32;59.11;102043.63;5045583;28;69954;-36
2022/10/06 03:27:33;;;;;;;;;7.25;5.00;;;;;21.33;59.17;102058.66;5060055;28;45299;-36
2022/10/06 03:29:59;;;;;;;;;6.75;6.00;;;;;21.32;59.44;102051.59;5059368;28;45407;-36
2022/10/06 03:32:24;;;;;;;;;11.25;8.25;;;;;21.32;58.94;102054.25;5059930;28;45320;-36
2022/10/06 03:34:52;;;;;;;;;7.00;5.75;;;;;21.32;58.86;102054.25;5059620;28;64708;-36
2022/10/06 03:37:17;;;;;;;;;5.00;5.00;;;;;21.30;58.99;102064.03;5060277;28;45334;-36
2022/10/06 03:39:43;;;;;;;;;5.00;4.75;;;;;21.31;59.27;102067.56;5060206;28;45213;-36
2022/10/06 03:42:08;;;;;;;;;6.50;4.50;;;;;21.31;59.30;102070.22;5059611;28;46189;-36
2022/10/06 03:44:34;;;;;;;;;6.50;5.00;;;;;21.29;59.23;102077.34;5060121;28;48556;-36
2022/10/06 03:46:59;;;;;;;;;4.50;4.50;;;;;21.28;59.08;102076.41;5059505;28;54629;-36
2022/10/06 03:49:25;;;;;;;;;6.50;5.00;;;;;21.30;59.22;102087.94;5064958;28;69878;-36
2022/10/06 03:51:50;;;;;;;;;6.75;6.00;;;;;21.30;59.26;102092.38;5066682;28;45247;-36
2022/10/06 03:54:15;;;;;;;;;5.50;5.00;;;;;21.29;59.42;102094.13;5066400;28;69044;-36
2022/10/06 03:56:41;;;;;;;;;10.00;6.25;;;;;21.31;59.64;102100.31;5080010;28;45870;-36
2022/10/06 03:59:08;;;;;;;;;5.75;5.00;;;;;21.31;59.33;102100.31;5079049;28;45232;-36
2022/10/06 04:01:38;;;;;;;;;4.25;3.50;;;;;21.30;59.35;102102.97;5078677;28;46243;-36
2022/10/06 04:04:03;;;;;;;;;5.50;5.00;;;;;21.29;59.40;102110.06;5080152;28;45272;-36
2022/10/06 04:06:30;;;;;;;;;8.00;6.00;;;;;21.30;59.40;102114.47;5082906;28;45231;-36
2022/10/06 04:08:55;;;;;;;;;9.25;8.00;;;;;21.29;59.33;102120.69;5083719;28;45449;-36
2022/10/06 04:11:23;;;;;;;;;5.00;4.50;;;;;21.30;59.86;102121.56;5068991;28;45250;-36
2022/10/06 04:13:57;;;;;;;;;6.75;4.25;;;;;21.30;59.71;102117.13;5063430;28;45268;-36
2022/10/06 04:16:24;;;;;;;;;6.00;3.00;;;;;21.30;59.52;102117.13;5063045;28;45235;-36
2022/10/06 04:18:54;;;;;;;;;6.50;4.75;;;;;21.30;59.57;102117.13;5061826;28;45330;-36
2022/10/06 04:21:20;;;;;;;;;5.50;5.50;;;;;21.31;59.28;102125.97;5061789;28;45315;-35
2022/10/06 04:23:45;;;;;;;;;6.00;5.00;;;;;21.30;59.02;102121.56;5062297;28;71018;-34
2022/10/06 04:26:17;;;;;;;;;6.25;4.75;;;;;21.29;59.29;102123.34;5062957;28;45211;-35
2022/10/06 04:28:43;;;;;;;;;6.50;5.00;;;;;21.29;59.49;102128.66;5062958;28;45376;-35
2022/10/06 04:31:21;;;;;;;;;7.00;5.00;;;;;21.27;59.42;102127.78;5044692;28;47100;-34
2022/10/06 04:33:47;;;;;;;;;6.25;4.00;;;;;21.29;59.37;102133.09;5063052;28;45307;-35
2022/10/06 04:36:14;;;;;;;;;6.25;5.00;;;;;21.29;59.62;102135.75;5080737;28;45323;-35
2022/10/06 04:38:39;;;;;;;;;4.75;4.00;;;;;21.28;58.85;102141.94;5070817;28;45426;-34
2022/10/06 04:41:05;;;;;;;;;4.00;3.75;;;;;21.28;59.29;102144.59;5062056;28;65159;-35
2022/10/06 04:43:32;;;;;;;;;4.75;4.00;;;;;21.28;59.29;102144.59;5062603;28;45305;-37
2022/10/06 04:45:58;;;;;;;;;5.50;4.50;;;;;21.27;59.53;102143.72;5062917;28;45398;-34
2022/10/06 04:48:24;;;;;;;;;5.00;4.25;;;;;21.27;59.40;102149.03;5062830;28;45538;-37
2022/10/06 04:51:00;;;;;;;;;6.50;5.50;;;;;21.27;58.92;102156.13;5061367;28;45267;-36
2022/10/06 04:53:26;;;;;;;;;8.25;5.00;;;;;21.26;58.87;102149.00;5061302;28;45250;-36
2022/10/06 04:56:11;;;;;;;;;7.25;5.50;;;;;21.24;59.02;102161.44;5082953;28;45254;-34
2022/10/06 04:58:39;;;;;;;;;6.50;5.75;;;;;21.22;58.73;102156.16;5081376;28;45201;-38
2022/10/06 05:01:15;;;;;;;;;6.75;5.25;;;;;21.23;58.89;102159.69;5082739;28;45371;-36
2022/10/06 05:03:40;;;;;;;;;6.00;5.50;;;;;21.22;58.49;102156.16;5082710;28;45336;-36
2022/10/06 05:06:10;;;;;;;;;6.50;5.00;;;;;21.22;58.37;102158.81;5081624;28;45357;-36
2022/10/06 05:08:35;;;;;;;;;4.25;3.25;;;;;21.23;58.59;102155.25;5081420;28;45434;-36
2022/10/06 05:11:01;;;;;;;;;4.25;4.00;;;;;21.22;58.55;102153.50;5070582;28;46311;-36
2022/10/06 05:13:27;;;;;;;;;5.00;5.00;;;;;21.22;58.36;102155.28;5062055;28;45274;-36
2022/10/06 05:15:56;;;;;;;;;5.00;4.25;;;;;21.22;58.44;102156.16;5062268;28;45231;-36
2022/10/06 05:18:22;;;;;;;;;5.25;5.00;;;;;21.22;58.55;102153.50;5059725;28;45325;-36
2022/10/06 05:21:02;;;;;;;;;5.00;4.25;;;;;21.23;58.19;102157.91;5061455;28;69994;-36
2022/10/06 05:23:28;;;;;;;;;4.75;3.00;;;;;21.24;58.26;102162.31;5062175;28;45312;-36
2022/10/06 05:25:54;;;;;;;;;4.25;4.25;;;;;21.27;57.61;102159.66;5062249;28;45381;-37
2022/10/06 05:28:20;;;;;;;;;7.00;4.75;;;;;21.34;57.77;102163.09;5047628;28;45989;-37
2022/10/06 05:30:59;;;;;;;;;4.00;4.00;;;;;21.41;57.83;102165.66;5062073;28;45273;-36
2022/10/06 05:33:25;;;;;;;;;4.75;4.75;;;;;21.50;56.74;102169.97;5062338;28;45244;-36
2022/10/06 05:35:52;;;;;;;;;5.75;5.25;;;;;21.56;56.74;102179.66;5062065;28;45241;-36
2022/10/06 05:38:18;;;;;;;;;4.50;2.75;;;;;21.60;57.07;102182.25;5060574;28;45228;-36
2022/10/06 05:40:43;;;;;;;;;3.25;3.25;;;;;21.65;56.38;102177.75;5061835;28;46423;-37
2022/10/06 05:43:08;;;;;;;;;4.25;4.00;;;;;21.68;56.00;102185.69;5049027;28;71038;-36
2022/10/06 05:45:34;;;;;;;;;3.75;3.50;;;;;21.70;56.55;102183.88;5060705;28;45295;-36
2022/10/06 05:47:59;;;;;;;;;6.25;4.00;;;;;21.73;55.72;102183.84;5061086;28;62300;-36
2022/10/06 05:50:25;;;;;;;;;5.50;4.50;;;;;21.78;56.14;102191.72;5060990;28;62446;-37
2022/10/06 05:52:53;;;;;;;;;5.50;3.00;;;;;21.82;56.03;102203.22;5061659;28;45280;-38
2022/10/06 05:55:18;;;;;;;;;4.50;3.25;;;;;21.83;55.96;102197.00;5077335;28;45394;-37
2022/10/06 05:57:44;;;;;;;;;6.00;5.25;;;;;21.85;55.74;102198.72;5062518;28;65381;-36
2022/10/06 06:00:09;;;;;;;;;5.75;4.75;;;;;21.88;55.91;102203.09;5079897;28;57056;-38
2022/10/06 06:02:35;;;;;;;;;5.75;5.75;;;;;21.88;55.50;102198.66;5081952;28;45285;-37
2022/10/06 06:05:00;;;;;;;;;3.25;2.75;;;;;21.89;55.09;102203.13;5081653;28;51194;-36
2022/10/06 06:07:26;;;;;;;;;7.50;4.75;;;;;21.92;55.43;102210.16;5081245;28;61849;-36
2022/10/06 06:09:52;;;;;;;;;3.75;3.75;;;;;21.94;55.03;102205.69;5060550;28;63384;-37
2022/10/06 06:12:17;;;;;;;;;6.50;4.00;;;;;21.95;55.33;102200.34;5061323;28;45302;-37
2022/10/06 06:17:30;;;;;;;;;4.00;3.25;;;;;21.97;54.57;102206.50;5061374;28;45209;-37
2022/10/06 06:19:55;;;;;;;;;5.00;4.00;;;;;21.98;55.47;102199.44;5059805;28;45382;-37
2022/10/06 06:22:20;;;;;;;;;6.75;4.50;;;;;21.97;55.07;102203.84;5060883;28;54250;-41
2022/10/06 06:24:46;;;;;;;;;8.00;5.50;;;;;21.99;54.98;102210.06;5060376;28;64666;-37
2022/10/06 06:27:11;;;;;;;;;4.50;4.00;;;;;21.98;55.31;102210.97;5061048;28;45462;-38
2022/10/06 06:29:38;;;;;;;;;5.50;4.00;;;;;22.00;55.05;102216.25;5060462;28;55948;-37
2022/10/06 06:32:04;;;;;;;;;4.00;4.00;;;;;22.01;55.03;102225.97;5061091;28;45295;-36
2022/10/06 06:34:30;;;;;;;;;8.75;5.00;;;;;22.01;54.43;102226.84;5061051;28;45221;-38
2022/10/06 06:36:57;;;;;;;;;9.75;6.75;;;;;22.02;54.76;102225.94;5060390;28;65546;-37
2022/10/06 06:39:23;;;;;;;;;4.75;4.75;;;;;22.02;54.92;102225.94;5060700;28;45243;-37
2022/10/06 06:41:49;;;;;;;;;7.50;6.75;;;;;22.00;54.63;102226.88;5059594;28;45399;-37
2022/10/06 06:44:14;;;;;;;;;6.50;4.75;;;;;21.98;54.91;102229.56;5061120;28;45330;-37
2022/10/06 06:46:41;;;;;;;;;6.50;5.25;;;;;21.96;54.89;102233.13;5071822;28;45287;-36
2022/10/06 06:49:07;;;;;;;;;5.25;4.00;;;;;21.94;54.81;102243.78;5062014;28;46188;-36
2022/10/06 06:51:33;;;;;;;;;8.75;4.50;;;;;21.92;55.03;102245.59;5060988;28;45235;-36
2022/10/06 06:54:01;;;;;;;;;4.25;4.25;;;;;21.91;54.88;102249.16;5065472;28;45482;-36
2022/10/06 06:56:26;;;;;;;;;6.00;5.00;;;;;21.88;55.41;102249.19;5081260;28;45424;-36
2022/10/06 06:58:52;;;;;;;;;7.25;6.00;;;;;21.87;54.97;102252.75;5080598;28;46284;-36
2022/10/06 07:01:18;;;;;;;;;6.50;5.00;;;;;21.86;55.28;102261.63;5080062;28;67576;-36
2022/10/06 07:03:46;;;;;;;;;7.00;4.75;;;;;21.85;55.30;102257.19;5079814;28;45345;-36
2022/10/06 07:06:13;;;;;;;;;7.00;5.75;;;;;21.83;55.32;102261.66;5080818;28;45266;-36
2022/10/06 07:08:41;;;;;;;;;5.25;3.00;;;;;21.82;55.75;102269.66;5079496;28;46093;-36
2022/10/06 07:11:17;;;;;;;;;5.25;2.50;;;;;21.81;55.32;102266.13;5068022;28;45298;-36
2022/10/06 07:13:43;;;;;;;;;7.00;6.00;;;;;21.79;55.74;102265.25;5067859;28;45447;-36
2022/10/06 07:27:30;;;;;;;;;8.25;5.00;;;;;21.73;55.91;102287.50;5080451;28;45404;-36
2022/10/06 07:29:56;;;;;;;;;6.25;5.00;;;;;21.72;55.78;102284.84;5080767;28;45401;-36
2022/10/06 07:32:22;;;;;;;;;6.00;4.50;;;;;21.72;56.18;102287.50;5079699;28;60330;-36
2022/10/06 07:34:48;;;;;;;;;9.75;6.00;;;;;21.70;55.80;102292.81;5080599;28;45389;-36
2022/10/06 07:37:13;;;;;;;;;5.50;4.00;;;;;21.71;56.19;102297.22;5080594;28;45420;-36
2022/10/06 07:39:38;;;;;;;;;8.00;6.00;;;;;21.70;55.99;102294.59;5078951;28;64762;-36
2022/10/06 07:42:12;;;;;;;;;5.00;4.75;;;;;21.70;56.04;102302.56;5079859;28;47277;-36
2022/10/06 07:44:37;;;;;;;;;7.00;5.00;;;;;21.70;55.96;102305.22;5080390;28;45330;-36
2022/10/06 07:47:04;;;;;;;;;7.00;6.00;;;;;21.68;56.32;102299.94;5080093;27;45549;-36
2022/10/06 07:49:29;;;;;;;;;6.25;5.00;;;;;21.68;56.42;102307.91;5080326;28;46882;-36
2022/10/06 07:51:55;;;;;;;;;7.50;5.75;;;;;21.68;56.19;102312.34;5078221;28;67681;-36
2022/10/06 07:54:21;;;;;;;;;7.00;6.00;;;;;21.67;55.91;102306.16;5066623;28;45415;-40
2022/10/06 07:56:47;;;;;;;;;8.50;5.00;;;;;21.67;56.33;102311.47;5079935;28;45461;-37
2022/10/06 07:59:12;;;;;;;;;4.75;4.75;;;;;21.67;56.21;102321.22;5078822;28;47055;-36
2022/10/06 08:01:37;;;;;;;;;6.75;6.00;;;;;21.67;56.15;102316.78;5079241;28;63147;-38
2022/10/06 08:04:05;;;;;;;;;7.00;5.25;;;;;21.67;56.17;102321.22;5080384;28;45801;-37
2022/10/06 08:06:31;;;;;;;;;6.50;6.25;;;;;21.67;56.33;102324.75;5078787;28;45481;-37
2022/10/06 08:08:56;;;;;;;;;6.50;6.50;;;;;21.67;56.07;102326.53;5080029;28;45461;-37
2022/10/06 08:11:22;;;;;;;;;9.00;7.00;;;;;21.67;56.21;102332.72;5064812;28;60299;-37
2022/10/06 08:13:47;;;;;;;;;5.75;5.75;;;;;21.67;56.60;102326.53;5058457;28;45268;-37
2022/10/06 08:16:15;;;;;;;;;10.75;7.50;;;;;21.67;56.62;102330.06;5059212;28;45406;-37
2022/10/06 08:18:40;;;;;;;;;9.75;7.50;;;;;21.68;56.37;102339.78;5049243;28;45350;-37
2022/10/06 08:21:14;;;;;;;;;4.75;3.50;;;;;21.67;56.28;102331.84;5065387;28;45256;-37
2022/10/06 08:23:42;;;;;;;;;7.00;6.00;;;;;21.67;56.28;102343.34;5059818;28;45243;-37
2022/10/06 08:26:11;;;;;;;;;6.75;6.75;;;;;21.68;56.80;102344.22;5059368;28;45479;-37
2022/10/06 08:28:36;;;;;;;;;6.00;6.00;;;;;21.67;56.30;102342.47;5067789;28;45961;-37
2022/10/06 08:31:07;;;;;;;;;7.00;6.00;;;;;21.67;56.63;102343.34;5062226;28;45493;-37
2022/10/06 08:33:34;;;;;;;;;8.25;8.00;;;;;21.67;56.41;102342.47;5059584;28;45333;-38
2022/10/06 08:36:10;;;;;;;;;7.25;5.75;;;;;21.67;56.35;102343.34;5059447;28;45623;-37
2022/10/06 08:38:36;;;;;;;;;9.25;7.00;;;;;21.67;55.99;102350.44;5059410;28;45314;-37
2022/10/06 08:41:24;;;;;;;;;7.75;7.00;;;;;21.68;56.77;102357.53;5057862;28;45328;-37
2022/10/06 08:44:01;;;;;;;;;7.50;6.25;;;;;21.66;56.68;102356.66;5057821;28;45316;-37
2022/10/06 08:46:38;;;;;;;;;8.75;7.00;;;;;21.66;56.52;102354.88;5057933;28;45445;-37
2022/10/06 08:49:04;;;;;;;;;5.25;5.00;;;;;21.66;56.47;102354.88;5055346;28;47206;-37
2022/10/06 08:51:50;;;;;;;;;8.75;5.75;;;;;21.67;56.50;102361.09;5059095;28;45351;-37
2022/10/06 08:54:35;;;;;;;;;8.75;7.00;;;;;21.65;56.83;102352.25;5063033;28;45347;-37
2022/10/06 08:57:07;;;;;;;;;8.25;5.75;;;;;21.65;56.81;102366.41;5062287;28;45895;-37
2022/10/06 08:59:35;;;;;;;;;8.25;7.00;;;;;21.64;56.56;102363.78;5051556;28;45846;-37
2022/10/06 09:02:05;;;;;;;;;10.75;6.00;;;;;21.63;56.54;102372.63;5061209;28;45390;-36
2022/10/06 09:04:31;;;;;;;;;9.00;7.00;;;;;21.64;56.73;102369.09;5062597;28;45294;-37
2022/10/06 09:07:13;;;;;;;;;11.00;8.75;;;;;21.61;56.79;102374.41;5061052;28;45283;-37
2022/10/06 09:10:00;;;;;;;;;7.75;7.75;;;;;21.62;57.10;102368.22;5057779;28;46821;-37
2022/10/06 09:12:26;;;;;;;;;6.75;6.25;;;;;21.62;57.24;102376.19;5062384;28;45437;-37
2022/10/06 09:15:30;;;;;;;;;10.00;7.00;;;;;21.62;56.96;102371.75;5062067;28;45208;-37
2022/10/06 09:18:00;;;;;;;;;8.75;7.75;;;;;21.62;56.83;102371.75;5060188;28;45169;-37
2022/10/06 09:20:31;;;;;;;;;8.25;7.25;;;;;21.63;57.31;102375.28;5062206;28;46208;-37
2022/10/06 09:22:57;;;;;;;;;7.25;6.75;;;;;21.63;56.90;102376.19;5062064;28;45319;-37
2022/10/06 09:25:27;;;;;;;;;9.00;8.25;;;;;21.64;57.26;102380.59;5049595;28;56288;-36
2022/10/06 09:27:57;;;;;;;;;6.75;6.75;;;;;21.65;57.06;102376.16;5061820;28;45445;-36
2022/10/06 09:30:23;;;;;;;;;8.25;5.75;;;;;21.65;57.52;102376.16;5071406;28;46231;-36
2022/10/06 09:32:56;;;;;;;;;9.75;7.00;;;;;21.65;57.02;102378.81;5080921;28;45831;-36
2022/10/06 09:35:23;;;;;;;;;6.50;6.50;;;;;21.66;56.98;102384.13;5070935;28;45241;-37
2022/10/06 09:38:10;;;;;;;;;6.25;6.25;;;;;21.68;57.30;102376.13;5062130;28;45233;-36
2022/10/06 09:40:47;;;;;;;;;11.75;8.00;;;;;21.68;56.88;102378.78;5060648;28;46174;-38
2022/10/06 09:43:27;;;;;;;;;12.50;8.25;;;;;21.68;57.38;102377.00;5053170;28;45332;-37
2022/10/06 09:45:57;;;;;;;;;6.00;6.00;;;;;21.68;57.11;102382.31;5062881;28;45344;-37
2022/10/06 09:48:25;;;;;;;;;8.75;6.75;;;;;21.68;57.34;102377.00;5061924;28;45339;-37
2022/10/06 09:51:13;;;;;;;;;10.50;7.75;;;;;21.69;57.04;102377.88;5061740;28;46205;-37
2022/10/06 09:53:40;;;;;;;;;10.00;8.00;;;;;21.69;56.99;102375.22;5063469;28;45567;-37
2022/10/06 09:56:17;;;;;;;;;9.00;7.00;;;;;21.69;57.23;102377.88;5082100;28;45360;-37
2022/10/06 09:58:52;;;;;;;;;8.50;7.75;;;;;21.69;57.33;102378.75;5080600;28;45374;-37
2022/10/06 10:01:17;;;;;;;;;11.75;7.00;;;;;21.69;57.40;102376.09;5080614;28;45452;-37
2022/10/06 10:03:50;;;;;;;;;5.75;5.75;;;;;21.69;57.01;102373.44;5045551;28;58089;-37
2022/10/06 10:06:28;;;;;;;;;6.25;6.25;;;;;21.71;56.82;102376.06;5069915;28;45255;-38
2022/10/06 10:09:16;;;;;;;;;8.25;7.00;;;;;21.71;56.97;102373.41;5068799;28;45549;-37
2022/10/06 10:14:25;;;;;;;;;10.25;7.50;;;;;21.70;57.46;102375.19;5061364;28;45228;-37
2022/10/06 10:16:51;;;;;;;;;8.25;7.00;;;;;21.69;57.61;102375.22;5060330;28;66143;-37
2022/10/06 10:19:24;;;;;;;;;6.00;5.25;;;;;21.70;57.40;102374.31;5060990;28;45185;-37
2022/10/06 10:21:50;;;;;;;;;8.75;7.25;;;;;21.70;57.32;102369.00;5060093;28;46930;-37
2022/10/06 10:24:22;;;;;;;;;6.25;6.25;;;;;21.70;57.43;102374.31;5060425;28;45245;-37
2022/10/06 10:26:57;;;;;;;;;10.00;9.00;;;;;21.70;56.92;102375.19;5064155;28;45477;-37
2022/10/06 10:29:41;;;;;;;;;6.00;6.00;;;;;21.71;57.42;102370.75;5063563;28;45487;-37
2022/10/06 10:32:13;;;;;;;;;8.00;7.75;;;;;21.71;57.23;102358.34;5081259;28;45299;-37
2022/10/06 10:35:01;;;;;;;;;9.00;7.00;;;;;21.71;57.46;102362.78;5059857;28;45356;-37
2022/10/06 10:37:34;;;;;;;;;6.75;6.50;;;;;21.72;57.46;102364.56;5075770;28;45745;-37
2022/10/06 10:40:22;;;;;;;;;7.50;7.00;;;;;21.72;57.29;102367.25;5063321;28;45497;-37
2022/10/06 10:43:12;;;;;;;;;7.75;6.00;;;;;21.73;57.40;102361.91;5079646;28;46296;-37
2022/10/06 10:46:16;;;;;;;;;9.25;8.25;;;;;21.73;57.14;102359.25;5079920;28;45338;-37
2022/10/06 10:48:52;;;;;;;;;9.00;8.00;;;;;21.75;56.94;102361.88;5078167;28;45459;-37
2022/10/06 10:51:25;;;;;;;;;6.25;6.25;;;;;21.76;57.45;102363.63;5081242;28;45165;-37
2022/10/06 10:54:09;;;;;;;;;6.50;6.25;;;;;21.76;57.27;102360.97;5067577;28;45416;-37
2022/10/06 10:56:35;;;;;;;;;9.50;7.50;;;;;21.76;57.64;102355.66;5081061;28;45247;-37
2022/10/06 10:59:34;;;;;;;;;8.25;6.75;;;;;21.76;56.94;102358.31;5080324;28;62354;-37
2022/10/06 11:02:20;;;;;;;;;8.50;5.00;;;;;21.78;57.23;102358.28;5042238;28;45439;-37
2022/10/06 11:04:46;;;;;;;;;8.25;6.00;;;;;21.77;57.23;102351.22;5060349;28;46079;-37
2022/10/06 11:07:34;;;;;;;;;9.00;8.25;;;;;21.76;57.02;102353.00;5059506;28;45340;-37
2022/10/06 11:10:05;;;;;;;;;6.75;5.75;;;;;21.75;57.05;102351.25;5064897;28;45274;-37
2022/10/06 11:12:32;;;;;;;;;7.00;6.25;;;;;21.75;57.27;102351.25;5069411;28;45352;-37
2022/10/06 11:15:22;;;;;;;;;9.00;6.00;;;;;21.78;57.51;102350.31;5062052;28;45439;-38
2022/10/06 11:17:49;;;;;;;;;7.00;7.00;;;;;21.79;57.24;102344.97;5027031;28;45425;-38
2022/10/06 11:20:37;;;;;;;;;7.50;5.25;;;;;21.82;57.48;102344.97;5059406;28;45355;-37
2022/10/06 11:23:21;;;;;;;;;7.50;6.00;;;;;21.82;56.85;102347.63;5059114;28;45331;-37
2022/10/06 11:25:59;;;;;;;;;7.25;5.75;;;;;21.83;57.23;102353.81;5059042;28;46060;-37
2022/10/06 11:28:57;;;;;;;;;9.00;7.25;;;;;21.80;57.08;102353.84;5066418;28;45437;-37
2022/10/06 11:31:34;;;;;;;;;7.50;7.50;;;;;21.77;57.07;102344.13;5064260;28;45312;-37
2022/10/06 11:34:00;;;;;;;;;5.00;5.00;;;;;21.78;57.02;102343.22;5080607;28;45282;-37
2022/10/06 11:36:40;;;;;;;;;6.25;6.00;;;;;21.79;57.16;102339.66;5080660;27;46041;-35
2022/10/06 11:39:27;;;;;;;;;7.50;5.25;;;;;21.78;57.15;102337.91;5080383;28;45413;-35
2022/10/06 11:42:19;;;;;;;;;7.50;5.00;;;;;21.78;57.37;102340.56;5080439;27;45232;-36
2022/10/06 11:44:53;;;;;;;;;6.50;5.25;;;;;21.78;57.07;102334.38;5079262;28;45251;-38
2022/10/06 11:47:21;;;;;;;;;8.25;4.75;;;;;21.79;57.22;102338.78;5062441;28;45424;-36
2022/10/06 11:49:54;;;;;;;;;4.25;4.25;;;;;21.78;56.93;102334.38;5079228;28;45324;-37
2022/10/06 11:52:20;;;;;;;;;6.50;6.50;;;;;21.81;56.75;102331.69;5075722;28;45299;-36